sensor_id;sensor_type;location;lat;lon;timestamp;P1;durP1;ratioP1;P2;durP2;ratioP2
63621;SDS011;49770;47.544;19.074;2023-05-10T04:13:09;6.68;;;5.05;;
63621;SDS011;49770;47.544;19.074;2023-05-10T04:16:18;5.78;;;5.15;;
63621;SDS011;49770;47.544;19.074;2023-05-10T04:19:30;6.93;;;5.00;;
63621;SDS011;49770;47.544;19.074;2023-05-10T04:22:39;10.00;;;5.72;;
63621;SDS011;49770;47.544;19.074;2023-05-10T04:25:47;6.50;;;4.95;;
63621;SDS011;49770;47.544;19.074;2023-05-10T04:28:56;7.18;;;5.62;;
63621;SDS011;49770;47.544;19.074;2023-05-10T04:32:04;5.43;;;4.93;;
63621;SDS011;49770;47.544;19.074;2023-05-10T04:35:10;7.75;;;5.28;;
63621;SDS011;49770;47.544;19.074;2023-05-10T04:38:20;5.72;;;5.22;;
63621;SDS011;49770;47.544;19.074;2023-05-10T04:41:29;5.65;;;4.95;;
63621;SDS011;49770;47.544;19.074;2023-05-10T04:44:36;7.68;;;5.15;;
63621;SDS011;49770;47.544;19.074;2023-05-10T04:47:44;6.87;;;5.30;;
63621;SDS011;49770;47.544;19.074;2023-05-10T04:50:52;6.75;;;5.55;;
63621;SDS011;49770;47.544;19.074;2023-05-10T04:53:59;14.70;;;5.45;;
63621;SDS011;49770;47.544;19.074;2023-05-10T04:57:11;7.87;;;5.53;;
63621;SDS011;49770;47.544;19.074;2023-05-10T05:00:18;8.10;;;6.00;;
63621;SDS011;49770;47.544;19.074;2023-05-10T05:03:24;9.52;;;5.50;;
63621;SDS011;49770;47.544;19.074;2023-05-10T05:06:30;7.37;;;5.62;;
63621;SDS011;49770;47.544;19.074;2023-05-10T05:09:37;9.07;;;6.05;;
63621;SDS011;49770;47.544;19.074;2023-05-10T05:12:41;6.78;;;5.75;;
63621;SDS011;49770;47.544;19.074;2023-05-10T05:15:46;5.80;;;5.30;;
63621;SDS011;49770;47.544;19.074;2023-05-10T05:18:53;7.35;;;5.78;;
63621;SDS011;49770;47.544;19.074;2023-05-10T05:21:59;8.27;;;5.87;;
63621;SDS011;49770;47.544;19.074;2023-05-10T05:25:05;7.18;;;5.45;;
63621;SDS011;49770;47.544;19.074;2023-05-10T05:28:11;6.37;;;5.72;;
63621;SDS011;49770;47.544;19.074;2023-05-10T05:31:19;8.38;;;5.72;;
63621;SDS011;49770;47.544;19.074;2023-05-10T05:34:25;10.38;;;6.22;;
63621;SDS011;49770;47.544;19.074;2023-05-10T05:37:33;8.60;;;5.70;;
63621;SDS011;49770;47.544;19.074;2023-05-10T05:40:40;8.18;;;5.80;;
63621;SDS011;49770;47.544;19.074;2023-05-10T05:43:49;6.47;;;5.60;;
63621;SDS011;49770;47.544;19.074;2023-05-10T05:46:57;5.68;;;5.15;;
63621;SDS011;49770;47.544;19.074;2023-05-10T05:50:03;8.32;;;5.45;;
63621;SDS011;49770;47.544;19.074;2023-05-10T05:53:10;10.25;;;5.90;;
63621;SDS011;49770;47.544;19.074;2023-05-10T05:56:18;6.80;;;5.47;;
63621;SDS011;49770;47.544;19.074;2023-05-10T05:59:28;9.23;;;5.83;;
63621;SDS011;49770;47.544;19.074;2023-05-10T06:02:37;9.07;;;5.43;;
63621;SDS011;49770;47.544;19.074;2023-05-10T06:05:46;6.93;;;5.12;;
63621;SDS011;49770;47.544;19.074;2023-05-10T06:08:51;7.20;;;5.65;;
63621;SDS011;49770;47.544;19.074;2023-05-10T06:12:01;9.48;;;4.93;;
63621;SDS011;49770;47.544;19.074;2023-05-10T06:15:08;7.05;;;5.95;;
63621;SDS011;49770;47.544;19.074;2023-05-10T06:18:16;9.93;;;5.68;;
63621;SDS011;49770;47.544;19.074;2023-05-10T06:21:25;7.70;;;5.07;;
63621;SDS011;49770;47.544;19.074;2023-05-10T06:24:34;8.38;;;5.25;;
63621;SDS011;49770;47.544;19.074;2023-05-10T06:27:45;11.35;;;5.47;;
63621;SDS011;49770;47.544;19.074;2023-05-10T06:30:57;6.35;;;5.30;;
63621;SDS011;49770;47.544;19.074;2023-05-10T06:34:06;9.43;;;5.12;;
63621;SDS011;49770;47.544;19.074;2023-05-10T06:37:13;7.60;;;5.55;;
63621;SDS011;49770;47.544;19.074;2023-05-10T06:40:21;8.98;;;6.00;;
63621;SDS011;49770;47.544;19.074;2023-05-10T06:43:29;8.73;;;5.60;;
63621;SDS011;49770;47.544;19.074;2023-05-10T06:46:36;11.10;;;5.20;;
63621;SDS011;49770;47.544;19.074;2023-05-10T06:49:41;9.25;;;5.68;;
63621;SDS011;49770;47.544;19.074;2023-05-10T06:52:44;9.07;;;6.20;;
63621;SDS011;49770;47.544;19.074;2023-05-10T06:56:12;9.48;;;5.87;;
63621;SDS011;49770;47.544;19.074;2023-05-10T06:59:18;9.15;;;5.70;;
63621;SDS011;49770;47.544;19.074;2023-05-10T07:02:24;8.95;;;5.60;;
63621;SDS011;49770;47.544;19.074;2023-05-10T07:05:31;6.43;;;5.50;;
63621;SDS011;49770;47.544;19.074;2023-05-10T07:08:40;6.22;;;5.68;;
63621;SDS011;49770;47.544;19.074;2023-05-10T07:11:46;40.28;;;6.97;;
63621;SDS011;49770;47.544;19.074;2023-05-10T07:14:53;10.25;;;5.95;;
63621;SDS011;49770;47.544;19.074;2023-05-10T07:17:58;5.97;;;5.37;;
63621;SDS011;49770;47.544;19.074;2023-05-10T07:21:06;6.32;;;5.30;;
63621;SDS011;49770;47.544;19.074;2023-05-10T07:24:15;10.25;;;5.78;;
63621;SDS011;49770;47.544;19.074;2023-05-10T07:27:19;6.57;;;5.50;;
63621;SDS011;49770;47.544;19.074;2023-05-10T07:30:25;5.85;;;5.10;;
63621;SDS011;49770;47.544;19.074;2023-05-10T07:33:30;6.43;;;5.70;;
63621;SDS011;49770;47.544;19.074;2023-05-10T07:36:37;8.38;;;5.25;;
63621;SDS011;49770;47.544;19.074;2023-05-10T07:39:42;7.47;;;5.78;;
63621;SDS011;49770;47.544;19.074;2023-05-10T07:42:47;16.02;;;5.07;;
63621;SDS011;49770;47.544;19.074;2023-05-10T07:45:55;5.97;;;4.80;;
63621;SDS011;49770;47.544;19.074;2023-05-10T07:49:03;8.18;;;5.45;;
63621;SDS011;49770;47.544;19.074;2023-05-10T07:52:13;6.32;;;5.65;;
63621;SDS011;49770;47.544;19.074;2023-05-10T07:55:20;16.52;;;6.00;;
63621;SDS011;49770;47.544;19.074;2023-05-10T07:58:28;6.57;;;5.50;;
63621;SDS011;49770;47.544;19.074;2023-05-10T08:01:35;8.82;;;5.05;;
63621;SDS011;49770;47.544;19.074;2023-05-10T08:04:43;6.10;;;4.47;;
63621;SDS011;49770;47.544;19.074;2023-05-10T08:07:49;7.82;;;4.80;;
63621;SDS011;49770;47.544;19.074;2023-05-10T08:10:57;9.75;;;5.25;;
63621;SDS011;49770;47.544;19.074;2023-05-10T08:14:01;5.18;;;4.50;;
63621;SDS011;49770;47.544;19.074;2023-05-10T08:17:08;5.97;;;4.32;;
63621;SDS011;49770;47.544;19.074;2023-05-10T08:20:14;10.00;;;4.57;;
63621;SDS011;49770;47.544;19.074;2023-05-10T08:23:22;7.97;;;4.82;;
63621;SDS011;49770;47.544;19.074;2023-05-10T08:26:28;7.93;;;4.20;;
63621;SDS011;49770;47.544;19.074;2023-05-10T08:29:34;8.38;;;4.12;;
63621;SDS011;49770;47.544;19.074;2023-05-10T08:32:52;4.75;;;4.28;;
63621;SDS011;49770;47.544;19.074;2023-05-10T08:35:55;5.65;;;4.57;;
63621;SDS011;49770;47.544;19.074;2023-05-10T08:39:01;7.00;;;4.78;;
63621;SDS011;49770;47.544;19.074;2023-05-10T08:42:06;4.72;;;4.25;;
63621;SDS011;49770;47.544;19.074;2023-05-10T08:45:12;4.80;;;4.07;;
63621;SDS011;49770;47.544;19.074;2023-05-10T08:48:18;4.78;;;4.35;;
63621;SDS011;49770;47.544;19.074;2023-05-10T08:51:26;6.43;;;4.62;;
63621;SDS011;49770;47.544;19.074;2023-05-10T08:54:32;7.62;;;4.53;;
63621;SDS011;49770;47.544;19.074;2023-05-10T08:57:39;5.45;;;4.62;;
63621;SDS011;49770;47.544;19.074;2023-05-10T09:00:45;5.87;;;4.70;;
63621;SDS011;49770;47.544;19.074;2023-05-10T09:03:51;5.43;;;4.30;;
63621;SDS011;49770;47.544;19.074;2023-05-10T09:06:58;4.00;;;3.60;;
63621;SDS011;49770;47.544;19.074;2023-05-10T09:10:03;4.93;;;4.12;;
63621;SDS011;49770;47.544;19.074;2023-05-10T09:13:14;4.30;;;3.90;;
63621;SDS011;49770;47.544;19.074;2023-05-10T09:16:22;5.62;;;4.70;;
63621;SDS011;49770;47.544;19.074;2023-05-10T09:19:27;4.62;;;3.70;;
63621;SDS011;49770;47.544;19.074;2023-05-10T09:22:33;3.75;;;3.45;;
63621;SDS011;49770;47.544;19.074;2023-05-10T09:25:38;4.50;;;4.10;;
63621;SDS011;49770;47.544;19.074;2023-05-10T09:32:02;4.05;;;3.60;;
63621;SDS011;49770;47.544;19.074;2023-05-10T09:35:12;4.35;;;3.50;;
63621;SDS011;49770;47.544;19.074;2023-05-10T09:38:22;3.95;;;3.62;;
63621;SDS011;49770;47.544;19.074;2023-05-10T09:41:32;5.35;;;3.53;;
63621;SDS011;49770;47.544;19.074;2023-05-10T09:44:39;4.50;;;4.10;;
63621;SDS011;49770;47.544;19.074;2023-05-10T09:47:49;7.55;;;3.80;;
63621;SDS011;49770;47.544;19.074;2023-05-10T09:50:58;4.50;;;3.65;;
63621;SDS011;49770;47.544;19.074;2023-05-10T09:54:10;4.10;;;3.75;;
63621;SDS011;49770;47.544;19.074;2023-05-10T09:57:18;5.30;;;3.80;;
63621;SDS011;49770;47.544;19.074;2023-05-10T10:00:26;5.57;;;3.70;;
63621;SDS011;49770;47.544;19.074;2023-05-10T10:03:32;3.72;;;3.42;;
63621;SDS011;49770;47.544;19.074;2023-05-10T10:06:37;4.75;;;3.65;;
63621;SDS011;49770;47.544;19.074;2023-05-10T10:09:43;4.28;;;3.50;;
63621;SDS011;49770;47.544;19.074;2023-05-10T10:12:48;6.32;;;3.83;;
63621;SDS011;49770;47.544;19.074;2023-05-10T10:15:54;3.53;;;3.10;;
63621;SDS011;49770;47.544;19.074;2023-05-10T10:18:59;3.95;;;3.65;;
63621;SDS011;49770;47.544;19.074;2023-05-10T10:22:07;8.10;;;3.78;;
63621;SDS011;49770;47.544;19.074;2023-05-10T10:25:11;3.60;;;3.30;;
63621;SDS011;49770;47.544;19.074;2023-05-10T10:31:41;4.43;;;2.97;;
63621;SDS011;49770;47.544;19.074;2023-05-10T10:34:54;6.15;;;3.20;;
63621;SDS011;49770;47.544;19.074;2023-05-10T10:37:59;3.60;;;3.30;;
63621;SDS011;49770;47.544;19.074;2023-05-10T10:41:09;4.28;;;3.12;;
63621;SDS011;49770;47.544;19.074;2023-05-10T10:47:38;4.12;;;3.30;;
63621;SDS011;49770;47.544;19.074;2023-05-10T10:50:44;6.68;;;3.30;;
63621;SDS011;49770;47.544;19.074;2023-05-10T10:53:49;3.15;;;2.95;;
63621;SDS011;49770;47.544;19.074;2023-05-10T10:57:10;5.45;;;3.67;;
63621;SDS011;49770;47.544;19.074;2023-05-10T11:00:23;5.30;;;3.03;;
63621;SDS011;49770;47.544;19.074;2023-05-10T11:03:26;6.18;;;2.85;;
63621;SDS011;49770;47.544;19.074;2023-05-10T11:06:32;9.52;;;3.05;;
63621;SDS011;49770;47.544;19.074;2023-05-10T11:09:39;2.83;;;2.62;;
63621;SDS011;49770;47.544;19.074;2023-05-10T11:16:21;4.10;;;2.87;;
63621;SDS011;49770;47.544;19.074;2023-05-10T11:19:33;2.90;;;2.70;;
63621;SDS011;49770;47.544;19.074;2023-05-10T11:23:08;6.60;;;2.80;;
63621;SDS011;49770;47.544;19.074;2023-05-10T11:26:12;4.00;;;2.80;;
63621;SDS011;49770;47.544;19.074;2023-05-10T11:29:16;4.45;;;3.08;;
63621;SDS011;49770;47.544;19.074;2023-05-10T11:32:20;4.40;;;2.83;;
63621;SDS011;49770;47.544;19.074;2023-05-10T11:35:27;2.83;;;2.62;;
63621;SDS011;49770;47.544;19.074;2023-05-10T11:38:34;3.75;;;2.90;;
63621;SDS011;49770;47.544;19.074;2023-05-10T11:41:39;3.95;;;2.67;;
63621;SDS011;49770;47.544;19.074;2023-05-10T11:44:45;3.00;;;2.60;;
63621;SDS011;49770;47.544;19.074;2023-05-10T11:47:54;3.35;;;2.78;;
63621;SDS011;49770;47.544;19.074;2023-05-10T11:51:02;2.80;;;2.55;;
63621;SDS011;49770;47.544;19.074;2023-05-10T11:54:08;4.93;;;2.80;;
63621;SDS011;49770;47.544;19.074;2023-05-10T11:57:15;4.28;;;3.10;;
63621;SDS011;49770;47.544;19.074;2023-05-10T12:00:20;3.05;;;2.75;;
63621;SDS011;49770;47.544;19.074;2023-05-10T12:03:26;3.58;;;2.50;;
63621;SDS011;49770;47.544;19.074;2023-05-10T12:06:35;4.03;;;2.87;;
63621;SDS011;49770;47.544;19.074;2023-05-10T12:13:14;21.52;;;3.45;;
63621;SDS011;49770;47.544;19.074;2023-05-10T12:16:20;4.78;;;2.78;;
63621;SDS011;49770;47.544;19.074;2023-05-10T12:19:27;4.00;;;2.75;;
63621;SDS011;49770;47.544;19.074;2023-05-10T12:22:33;3.70;;;2.83;;
63621;SDS011;49770;47.544;19.074;2023-05-10T12:25:39;3.15;;;2.75;;
63621;SDS011;49770;47.544;19.074;2023-05-10T12:28:45;3.42;;;2.62;;
63621;SDS011;49770;47.544;19.074;2023-05-10T12:31:58;3.87;;;2.70;;
63621;SDS011;49770;47.544;19.074;2023-05-10T12:35:03;2.87;;;2.67;;
63621;SDS011;49770;47.544;19.074;2023-05-10T12:38:22;5.47;;;2.70;;
63621;SDS011;49770;47.544;19.074;2023-05-10T12:41:34;4.90;;;2.80;;
63621;SDS011;49770;47.544;19.074;2023-05-10T12:44:39;3.85;;;2.60;;
63621;SDS011;49770;47.544;19.074;2023-05-10T12:47:44;6.70;;;2.65;;
63621;SDS011;49770;47.544;19.074;2023-05-10T12:50:49;5.80;;;2.60;;
63621;SDS011;49770;47.544;19.074;2023-05-10T12:53:57;2.47;;;2.28;;
63621;SDS011;49770;47.544;19.074;2023-05-10T12:57:02;3.83;;;2.45;;
63621;SDS011;49770;47.544;19.074;2023-05-10T13:00:10;3.20;;;2.50;;
63621;SDS011;49770;47.544;19.074;2023-05-10T13:03:15;2.92;;;2.40;;
63621;SDS011;49770;47.544;19.074;2023-05-10T13:06:23;10.65;;;2.97;;
63621;SDS011;49770;47.544;19.074;2023-05-10T13:09:29;2.60;;;2.40;;
63621;SDS011;49770;47.544;19.074;2023-05-10T13:12:35;2.95;;;2.65;;
63621;SDS011;49770;47.544;19.074;2023-05-10T13:15:42;4.70;;;2.65;;
63621;SDS011;49770;47.544;19.074;2023-05-10T13:18:49;2.58;;;2.37;;
63621;SDS011;49770;47.544;19.074;2023-05-10T13:21:57;3.28;;;2.30;;
63621;SDS011;49770;47.544;19.074;2023-05-10T13:25:05;3.12;;;2.28;;
63621;SDS011;49770;47.544;19.074;2023-05-10T13:28:12;2.22;;;2.03;;
63621;SDS011;49770;47.544;19.074;2023-05-10T13:31:24;2.47;;;2.00;;
63621;SDS011;49770;47.544;19.074;2023-05-10T13:34:30;5.45;;;2.35;;
63621;SDS011;49770;47.544;19.074;2023-05-10T13:37:41;3.58;;;2.33;;
63621;SDS011;49770;47.544;19.074;2023-05-10T13:40:49;5.87;;;2.40;;
63621;SDS011;49770;47.544;19.074;2023-05-10T13:43:59;4.68;;;2.30;;
63621;SDS011;49770;47.544;19.074;2023-05-10T13:47:08;2.60;;;2.20;;
63621;SDS011;49770;47.544;19.074;2023-05-10T13:50:20;3.78;;;2.30;;
63621;SDS011;49770;47.544;19.074;2023-05-10T13:53:27;3.92;;;2.10;;
63621;SDS011;49770;47.544;19.074;2023-05-10T13:56:37;2.87;;;2.37;;
63621;SDS011;49770;47.544;19.074;2023-05-10T13:59:45;4.93;;;1.95;;
63621;SDS011;49770;47.544;19.074;2023-05-10T14:02:52;2.40;;;2.20;;
63621;SDS011;49770;47.544;19.074;2023-05-10T14:05:58;8.68;;;2.15;;
63621;SDS011;49770;47.544;19.074;2023-05-10T14:09:04;5.95;;;2.22;;
63621;SDS011;49770;47.544;19.074;2023-05-10T14:12:10;3.83;;;2.12;;
63621;SDS011;49770;47.544;19.074;2023-05-10T14:15:17;2.10;;;1.90;;
63621;SDS011;49770;47.544;19.074;2023-05-10T14:18:26;2.53;;;2.20;;
63621;SDS011;49770;47.544;19.074;2023-05-10T14:21:32;2.95;;;2.08;;
63621;SDS011;49770;47.544;19.074;2023-05-10T14:24:41;2.10;;;1.90;;
63621;SDS011;49770;47.544;19.074;2023-05-10T14:27:53;2.90;;;1.98;;
63621;SDS011;49770;47.544;19.074;2023-05-10T14:30:59;2.40;;;2.20;;
63621;SDS011;49770;47.544;19.074;2023-05-10T14:34:13;2.22;;;2.00;;
63621;SDS011;49770;47.544;19.074;2023-05-10T14:37:29;2.95;;;1.92;;
63621;SDS011;49770;47.544;19.074;2023-05-10T14:40:36;1.90;;;1.80;;
63621;SDS011;49770;47.544;19.074;2023-05-10T14:43:47;3.58;;;1.67;;
63621;SDS011;49770;47.544;19.074;2023-05-10T14:46:57;2.62;;;2.40;;
63621;SDS011;49770;47.544;19.074;2023-05-10T14:50:05;4.40;;;2.12;;
63621;SDS011;49770;47.544;19.074;2023-05-10T14:53:09;5.22;;;2.37;;
63621;SDS011;49770;47.544;19.074;2023-05-10T14:56:20;4.05;;;1.90;;
63621;SDS011;49770;47.544;19.074;2023-05-10T14:59:27;3.90;;;2.30;;
63621;SDS011;49770;47.544;19.074;2023-05-10T15:02:36;4.45;;;2.12;;
63621;SDS011;49770;47.544;19.074;2023-05-10T15:05:44;6.37;;;2.33;;
63621;SDS011;49770;47.544;19.074;2023-05-10T15:08:50;4.05;;;2.05;;
63621;SDS011;49770;47.544;19.074;2023-05-10T15:11:59;2.35;;;2.15;;
63621;SDS011;49770;47.544;19.074;2023-05-10T15:15:08;4.90;;;1.62;;
63621;SDS011;49770;47.544;19.074;2023-05-10T15:22:00;3.83;;;1.58;;
63621;SDS011;49770;47.544;19.074;2023-05-10T15:25:09;2.65;;;1.90;;
63621;SDS011;49770;47.544;19.074;2023-05-10T15:28:19;3.95;;;1.80;;
63621;SDS011;49770;47.544;19.074;2023-05-10T15:35:07;2.72;;;1.95;;
